AAL1526 KDCA-KLGA
Flight info
| Callsign | AAL1526 |
|---|---|
| Flight time | 0h 38m |
| Altitude | 27000 |
| Route | DOCTR5 AGARD SPEAK PROUD2 |
| Aircraft | A320/M-SDE3FGHIRWY/LB1 |
Departure
| Time | 2026-04-25 17:22 |
|---|---|
| Airport | Ronald Reagan Washington National Airport (KDCA) |
Arrival
| Time | 2026-04-25 18:00 |
|---|---|
| Airport | LaGuardia Airport (KLGA) |
| Time | Latitude | Longitude | Altitude | Speed | Heading |
|---|---|---|---|---|---|
| 2026-04-25 16:47 | 38.85035 | -77.04041 | 18 ft | 0 kts | 270° |
| 2026-04-25 17:15 | 38.85035 | -77.04031 | 18 ft | 2 kts | 270° |
| 2026-04-25 17:15 | 38.85035 | -77.04005 | 21 ft | 1 kts | 270° |
| 2026-04-25 17:15 | 38.85035 | -77.03997 | 19 ft | 2 kts | 270° |
| 2026-04-25 17:15 | 38.85034 | -77.03977 | 21 ft | 2 kts | 270° |
| 2026-04-25 17:16 | 38.85034 | -77.03967 | 21 ft | 0 kts | 270° |
| 2026-04-25 17:18 | 38.85048 | -77.03981 | 20 ft | 3 kts | 327° |
| 2026-04-25 17:18 | 38.85096 | -77.03985 | 18 ft | 10 kts | 9° |
| 2026-04-25 17:18 | 38.85164 | -77.03934 | 20 ft | 13 kts | 29° |
| 2026-04-25 17:18 | 38.85261 | -77.03924 | 19 ft | 15 kts | 1° |
| 2026-04-25 17:19 | 38.85350 | -77.03944 | 20 ft | 11 kts | 356° |
| 2026-04-25 17:19 | 38.85415 | -77.03947 | 22 ft | 7 kts | 0° |
| 2026-04-25 17:19 | 38.85515 | -77.03953 | 23 ft | 23 kts | 357° |
| 2026-04-25 17:19 | 38.85708 | -77.03965 | 25 ft | 29 kts | 356° |
| 2026-04-25 17:20 | 38.85879 | -77.03980 | 26 ft | 7 kts | 8° |
| 2026-04-25 17:20 | 38.85926 | -77.03965 | 24 ft | 8 kts | 42° |
| 2026-04-25 17:20 | 38.85927 | -77.03962 | 24 ft | 0 kts | 51° |
| 2026-04-25 17:20 | 38.85929 | -77.03943 | 24 ft | 6 kts | 87° |
| 2026-04-25 17:21 | 38.85898 | -77.03873 | 24 ft | 11 kts | 142° |
| 2026-04-25 17:21 | 38.85840 | -77.03852 | 28 ft | 0 kts | 146° |
| 2026-04-25 17:21 | 38.85799 | -77.03840 | 23 ft | 31 kts | 178° |
| 2026-04-25 17:21 | 38.85261 | -77.03767 | 20 ft | 120 kts | 175° |
| 2026-04-25 17:22 | 38.84234 | -77.03755 | 262 ft | 159 kts | 176° |
| 2026-04-25 17:22 | 38.83528 | -77.03750 | 892 ft | 155 kts | 177° |
| 2026-04-25 17:22 | 38.82071 | -77.03601 | 1729 ft | 157 kts | 174° |
| 2026-04-25 17:22 | 38.80962 | -77.03404 | 2153 ft | 164 kts | 169° |
| 2026-04-25 17:23 | 38.79841 | -77.03097 | 2779 ft | 167 kts | 167° |
| 2026-04-25 17:23 | 38.78652 | -77.02758 | 3244 ft | 182 kts | 168° |
| 2026-04-25 17:23 | 38.77349 | -77.02412 | 3652 ft | 201 kts | 171° |
| 2026-04-25 17:23 | 38.75936 | -77.02031 | 4210 ft | 210 kts | 161° |
| 2026-04-25 17:24 | 38.74733 | -77.00844 | 4629 ft | 235 kts | 119° |
| 2026-04-25 17:24 | 38.74304 | -76.98758 | 5044 ft | 257 kts | 90° |
| 2026-04-25 17:24 | 38.74417 | -76.96361 | 5454 ft | 280 kts | 80° |
| 2026-04-25 17:24 | 38.75030 | -76.94009 | 6280 ft | 283 kts | 57° |
| 2026-04-25 17:25 | 38.76165 | -76.91960 | 7182 ft | 283 kts | 48° |
| 2026-04-25 17:25 | 38.77531 | -76.90135 | 8012 ft | 287 kts | 37° |
| 2026-04-25 17:25 | 38.79168 | -76.88644 | 8853 ft | 291 kts | 30° |
| 2026-04-25 17:25 | 38.80886 | -76.87244 | 9730 ft | 295 kts | 28° |
| 2026-04-25 17:26 | 38.82660 | -76.85850 | 10373 ft | 308 kts | 28° |
| 2026-04-25 17:26 | 38.84480 | -76.84195 | 10653 ft | 334 kts | 37° |
| 2026-04-25 17:26 | 38.86203 | -76.82031 | 10893 ft | 360 kts | 47° |
| 2026-04-25 17:26 | 38.87712 | -76.79327 | 11087 ft | 386 kts | 58° |
| 2026-04-25 17:27 | 38.88955 | -76.76159 | 11302 ft | 406 kts | 63° |
| 2026-04-25 17:27 | 38.90179 | -76.72865 | 11878 ft | 413 kts | 63° |
| 2026-04-25 17:27 | 38.91427 | -76.69522 | 12520 ft | 417 kts | 63° |
| 2026-04-25 17:27 | 38.92277 | -76.67246 | 12996 ft | 420 kts | 63° |
| 2026-04-25 17:28 | 38.93965 | -76.62733 | 13858 ft | 426 kts | 63° |
| 2026-04-25 17:28 | 38.95233 | -76.59278 | 14458 ft | 430 kts | 64° |
| 2026-04-25 17:28 | 38.96445 | -76.55742 | 15031 ft | 434 kts | 65° |
| 2026-04-25 17:28 | 38.97607 | -76.52147 | 15601 ft | 438 kts | 66° |
| 2026-04-25 17:29 | 38.98752 | -76.48499 | 16150 ft | 442 kts | 66° |
| 2026-04-25 17:29 | 38.99902 | -76.44825 | 16678 ft | 445 kts | 66° |
| 2026-04-25 17:29 | 39.00877 | -76.41022 | 17190 ft | 451 kts | 75° |
| 2026-04-25 17:29 | 39.01417 | -76.37031 | 17691 ft | 456 kts | 82° |
| 2026-04-25 17:30 | 39.01815 | -76.32974 | 18196 ft | 459 kts | 82° |
| 2026-04-25 17:30 | 39.02223 | -76.28890 | 18613 ft | 463 kts | 81° |
| 2026-04-25 17:30 | 39.02635 | -76.24770 | 19022 ft | 466 kts | 81° |
| 2026-04-25 17:30 | 39.03048 | -76.20579 | 19433 ft | 468 kts | 81° |
| 2026-04-25 17:31 | 39.03451 | -76.16461 | 19812 ft | 471 kts | 81° |
| 2026-04-25 17:31 | 39.03856 | -76.12263 | 20196 ft | 474 kts | 81° |
| 2026-04-25 17:31 | 39.04266 | -76.07985 | 20565 ft | 477 kts | 81° |
| 2026-04-25 17:31 | 39.04617 | -76.03783 | 20921 ft | 480 kts | 83° |
| 2026-04-25 17:32 | 39.04871 | -75.99432 | 21277 ft | 483 kts | 85° |
| 2026-04-25 17:32 | 39.05047 | -75.95099 | 21609 ft | 486 kts | 86° |
| 2026-04-25 17:32 | 39.05188 | -75.90748 | 21944 ft | 489 kts | 86° |
| 2026-04-25 17:32 | 39.05327 | -75.86370 | 22265 ft | 491 kts | 85° |
| 2026-04-25 17:33 | 39.05628 | -75.81985 | 22584 ft | 492 kts | 78° |
| 2026-04-25 17:33 | 39.06460 | -75.77729 | 22889 ft | 491 kts | 68° |
| 2026-04-25 17:33 | 39.07808 | -75.73707 | 23185 ft | 489 kts | 58° |
| 2026-04-25 17:33 | 39.09603 | -75.70012 | 23479 ft | 486 kts | 50° |
| 2026-04-25 17:34 | 39.11786 | -75.66721 | 23735 ft | 483 kts | 41° |
| 2026-04-25 17:34 | 39.14138 | -75.63608 | 23969 ft | 485 kts | 42° |
| 2026-04-25 17:34 | 39.16492 | -75.60483 | 24208 ft | 486 kts | 42° |
| 2026-04-25 17:34 | 39.18852 | -75.57345 | 24434 ft | 488 kts | 42° |
| 2026-04-25 17:35 | 39.21212 | -75.54199 | 24636 ft | 489 kts | 42° |
| 2026-04-25 17:35 | 39.23697 | -75.51216 | 24823 ft | 486 kts | 34° |
| 2026-04-25 17:35 | 39.26443 | -75.48682 | 24998 ft | 485 kts | 30° |
| 2026-04-25 17:35 | 39.29231 | -75.46228 | 25168 ft | 486 kts | 30° |
| 2026-04-25 17:36 | 39.32022 | -75.43758 | 25326 ft | 487 kts | 30° |
| 2026-04-25 17:36 | 39.34810 | -75.41284 | 25481 ft | 488 kts | 30° |
| 2026-04-25 17:36 | 39.37610 | -75.38795 | 25599 ft | 488 kts | 30° |
| 2026-04-25 17:36 | 39.40403 | -75.36311 | 25735 ft | 487 kts | 30° |
| 2026-04-25 17:37 | 39.43197 | -75.33826 | 25864 ft | 487 kts | 30° |
| 2026-04-25 17:37 | 39.45987 | -75.31341 | 25985 ft | 487 kts | 30° |
| 2026-04-25 17:37 | 39.48774 | -75.28854 | 26110 ft | 487 kts | 30° |
| 2026-04-25 17:37 | 39.51563 | -75.26356 | 26235 ft | 487 kts | 31° |
| 2026-04-25 17:38 | 39.54334 | -75.23817 | 26363 ft | 488 kts | 31° |
| 2026-04-25 17:38 | 39.56154 | -75.22119 | 26442 ft | 488 kts | 31° |
| 2026-04-25 17:38 | 39.59823 | -75.18645 | 26608 ft | 488 kts | 32° |
| 2026-04-25 17:38 | 39.62544 | -75.16045 | 26384 ft | 483 kts | 32° |
| 2026-04-25 17:39 | 39.65238 | -75.13474 | 25728 ft | 473 kts | 32° |
| 2026-04-25 17:39 | 39.67827 | -75.11016 | 25604 ft | 452 kts | 31° |
| 2026-04-25 17:39 | 39.70348 | -75.08716 | 25491 ft | 433 kts | 29° |
| 2026-04-25 17:39 | 39.72802 | -75.06587 | 25375 ft | 416 kts | 28° |
| 2026-04-25 17:40 | 39.75191 | -75.04583 | 25258 ft | 401 kts | 27° |
| 2026-04-25 17:40 | 39.77504 | -75.02654 | 25140 ft | 388 kts | 27° |
| 2026-04-25 17:40 | 39.79735 | -75.00776 | 25000 ft | 376 kts | 27° |
| 2026-04-25 17:40 | 39.81905 | -74.98928 | 24624 ft | 369 kts | 27° |
| 2026-04-25 17:41 | 39.84036 | -74.97100 | 24160 ft | 365 kts | 27° |
| 2026-04-25 17:41 | 39.86139 | -74.95275 | 23684 ft | 362 kts | 28° |
| 2026-04-25 17:41 | 39.88209 | -74.93424 | 23119 ft | 359 kts | 28° |
| 2026-04-25 17:41 | 39.90250 | -74.91567 | 22568 ft | 357 kts | 29° |
| 2026-04-25 17:42 | 39.92235 | -74.89635 | 22037 ft | 358 kts | 36° |
| 2026-04-25 17:42 | 39.93958 | -74.87276 | 21506 ft | 359 kts | 42° |
| 2026-04-25 17:42 | 39.95627 | -74.84865 | 20995 ft | 357 kts | 42° |
| 2026-04-25 17:42 | 39.97287 | -74.82479 | 20500 ft | 354 kts | 41° |
| 2026-04-25 17:43 | 39.98944 | -74.80109 | 20020 ft | 352 kts | 41° |
| 2026-04-25 17:43 | 40.00592 | -74.77756 | 19324 ft | 356 kts | 41° |
| 2026-04-25 17:43 | 40.02302 | -74.75332 | 18340 ft | 370 kts | 41° |
| 2026-04-25 17:43 | 40.04058 | -74.72839 | 17527 ft | 374 kts | 42° |
| 2026-04-25 17:44 | 40.05810 | -74.70334 | 16811 ft | 373 kts | 43° |
| 2026-04-25 17:44 | 40.07578 | -74.67797 | 15931 ft | 379 kts | 43° |
| 2026-04-25 17:44 | 40.09321 | -74.65278 | 15574 ft | 369 kts | 43° |
| 2026-04-25 17:44 | 40.11021 | -74.62810 | 15064 ft | 364 kts | 43° |
| 2026-04-25 17:45 | 40.12711 | -74.60366 | 14519 ft | 360 kts | 43° |
| 2026-04-25 17:45 | 40.13278 | -74.59547 | 14339 ft | 359 kts | 43° |
| 2026-04-25 17:45 | 40.16047 | -74.55552 | 13348 ft | 355 kts | 44° |
| 2026-04-25 17:45 | 40.17696 | -74.53170 | 12727 ft | 351 kts | 44° |
| 2026-04-25 17:46 | 40.19325 | -74.50816 | 12110 ft | 348 kts | 44° |
| 2026-04-25 17:46 | 40.20956 | -74.48508 | 11508 ft | 343 kts | 42° |
| 2026-04-25 17:46 | 40.22632 | -74.46310 | 10922 ft | 339 kts | 40° |
| 2026-04-25 17:46 | 40.24325 | -74.44189 | 10356 ft | 335 kts | 39° |
| 2026-04-25 17:47 | 40.26015 | -74.42106 | 9749 ft | 331 kts | 39° |
| 2026-04-25 17:47 | 40.27683 | -74.40052 | 9002 ft | 328 kts | 40° |
| 2026-04-25 17:47 | 40.29332 | -74.38004 | 8251 ft | 325 kts | 40° |
| 2026-04-25 17:47 | 40.30954 | -74.35966 | 7944 ft | 324 kts | 41° |
| 2026-04-25 17:48 | 40.34207 | -74.31860 | 7348 ft | 323 kts | 41° |
| 2026-04-25 17:48 | 40.35818 | -74.29823 | 6868 ft | 321 kts | 41° |
| 2026-04-25 17:48 | 40.37391 | -74.27826 | 6705 ft | 308 kts | 41° |
| 2026-04-25 17:49 | 40.38892 | -74.25913 | 6593 ft | 295 kts | 41° |
| 2026-04-25 17:49 | 40.40344 | -74.24062 | 6282 ft | 289 kts | 42° |
| 2026-04-25 17:49 | 40.41782 | -74.22239 | 5878 ft | 286 kts | 42° |
| 2026-04-25 17:49 | 40.43211 | -74.20430 | 5470 ft | 284 kts | 43° |
| 2026-04-25 17:50 | 40.44648 | -74.18608 | 5060 ft | 283 kts | 43° |
| 2026-04-25 17:50 | 40.46056 | -74.16821 | 4640 ft | 281 kts | 45° |
| 2026-04-25 17:50 | 40.47446 | -74.15052 | 4284 ft | 276 kts | 45° |
| 2026-04-25 17:50 | 40.48815 | -74.13306 | 3940 ft | 272 kts | 46° |
| 2026-04-25 17:51 | 40.50155 | -74.11596 | 3637 ft | 266 kts | 48° |
| 2026-04-25 17:51 | 40.51512 | -74.09969 | 3315 ft | 261 kts | 45° |
| 2026-04-25 17:51 | 40.52862 | -74.08409 | 3014 ft | 256 kts | 45° |
| 2026-04-25 17:51 | 40.54210 | -74.06868 | 3016 ft | 257 kts | 45° |
| 2026-04-25 17:52 | 40.55560 | -74.05332 | 3015 ft | 257 kts | 44° |
| 2026-04-25 17:52 | 40.56003 | -74.04831 | 3016 ft | 258 kts | 44° |
| 2026-04-25 17:52 | 40.57823 | -74.02772 | 3015 ft | 258 kts | 45° |
| 2026-04-25 17:52 | 40.59189 | -74.01234 | 3018 ft | 259 kts | 45° |
| 2026-04-25 17:53 | 40.60620 | -73.99611 | 3019 ft | 292 kts | 44° |
| 2026-04-25 17:53 | 40.62186 | -73.97801 | 3018 ft | 304 kts | 44° |
| 2026-04-25 17:53 | 40.63781 | -73.95941 | 3020 ft | 312 kts | 44° |
| 2026-04-25 17:53 | 40.65414 | -73.94026 | 3019 ft | 315 kts | 44° |
| 2026-04-25 17:54 | 40.67045 | -73.92105 | 3021 ft | 315 kts | 44° |
| 2026-04-25 17:54 | 40.68678 | -73.90182 | 3014 ft | 315 kts | 44° |
| 2026-04-25 17:54 | 40.70307 | -73.88275 | 3004 ft | 307 kts | 44° |
| 2026-04-25 17:54 | 40.71851 | -73.86489 | 3007 ft | 284 kts | 44° |
| 2026-04-25 17:55 | 40.73286 | -73.84842 | 3005 ft | 264 kts | 44° |
| 2026-04-25 17:55 | 40.74656 | -73.83280 | 3007 ft | 258 kts | 44° |
| 2026-04-25 17:55 | 40.76012 | -73.81731 | 2980 ft | 257 kts | 44° |
| 2026-04-25 17:55 | 40.77355 | -73.80197 | 2599 ft | 254 kts | 44° |
| 2026-04-25 17:56 | 40.78687 | -73.78677 | 2177 ft | 252 kts | 44° |
| 2026-04-25 17:56 | 40.80002 | -73.77173 | 2005 ft | 249 kts | 44° |
| 2026-04-25 17:56 | 40.81350 | -73.75748 | 2007 ft | 245 kts | 32° |
| 2026-04-25 17:56 | 40.82919 | -73.75213 | 2001 ft | 225 kts | 0° |
| 2026-04-25 17:57 | 40.84353 | -73.75728 | 2018 ft | 209 kts | 331° |
| 2026-04-25 17:57 | 40.85376 | -73.76946 | 2011 ft | 186 kts | 304° |
| 2026-04-25 17:57 | 40.85905 | -73.78405 | 2009 ft | 168 kts | 289° |
| 2026-04-25 17:57 | 40.86063 | -73.79367 | 2016 ft | 158 kts | 268° |
| 2026-04-25 17:58 | 40.85624 | -73.81082 | 1916 ft | 145 kts | 224° |
| 2026-04-25 17:58 | 40.84858 | -73.81864 | 1624 ft | 136 kts | 207° |
| 2026-04-25 17:58 | 40.84063 | -73.82543 | 1453 ft | 136 kts | 204° |
| 2026-04-25 17:58 | 40.83257 | -73.83174 | 1230 ft | 133 kts | 205° |
| 2026-04-25 17:59 | 40.82469 | -73.83828 | 1043 ft | 134 kts | 206° |
| 2026-04-25 17:59 | 40.81681 | -73.84511 | 770 ft | 134 kts | 206° |
| 2026-04-25 17:59 | 40.80875 | -73.85160 | 526 ft | 136 kts | 207° |
| 2026-04-25 17:59 | 40.80087 | -73.85806 | 470 ft | 136 kts | 204° |
| 2026-04-25 18:00 | 40.79309 | -73.86523 | 235 ft | 135 kts | 203° |
| 2026-04-25 18:00 | 40.78504 | -73.87098 | 69 ft | 132 kts | 204° |
| 2026-04-25 18:00 | 40.77820 | -73.87665 | 22 ft | 80 kts | 206° |
| 2026-04-25 18:00 | 40.77462 | -73.87939 | 27 ft | 47 kts | 214° |
| 2026-04-25 18:01 | 40.77282 | -73.88177 | 27 ft | 28 kts | 252° |
| 2026-04-25 18:01 | 40.77293 | -73.88324 | 24 ft | 17 kts | 320° |